sensor_id;sensor_type;location;lat;lon;timestamp;pressure;altitude;pressure_sealevel;temperature;humidity
70103;BME280;57470;50.034;15.256;2023-08-31T00:01:02;98686.66;;;13.77;96.59
70103;BME280;57470;50.034;15.256;2023-08-31T00:03:32;98684.94;;;13.96;96.39
70103;BME280;57470;50.034;15.256;2023-08-31T00:05:57;98687.06;;;13.82;96.71
70103;BME280;57470;50.034;15.256;2023-08-31T00:08:22;98688.78;;;13.74;97.68
70103;BME280;57470;50.034;15.256;2023-08-31T00:10:58;98686.16;;;14.01;96.21
70103;BME280;57470;50.034;15.256;2023-08-31T00:13:23;98694.91;;;14.03;96.27
70103;BME280;57470;50.034;15.256;2023-08-31T00:15:49;98692.09;;;13.95;97.39
70103;BME280;57470;50.034;15.256;2023-08-31T00:18:14;98690.84;;;13.89;98.68
70103;BME280;57470;50.034;15.256;2023-08-31T00:20:42;98689.03;;;13.80;100.00
70103;BME280;57470;50.034;15.256;2023-08-31T00:23:08;98685.88;;;14.04;100.00
70103;BME280;57470;50.034;15.256;2023-08-31T00:25:34;98690.53;;;14.02;99.86
70103;BME280;57470;50.034;15.256;2023-08-31T00:27:59;98701.09;;;14.04;98.97
70103;BME280;57470;50.034;15.256;2023-08-31T00:30:31;98690.91;;;14.07;98.15
70103;BME280;57470;50.034;15.256;2023-08-31T00:32:57;98689.50;;;14.13;98.96
70103;BME280;57470;50.034;15.256;2023-08-31T00:35:25;98689.53;;;14.03;100.00
70103;BME280;57470;50.034;15.256;2023-08-31T00:37:52;98690.91;;;14.07;100.00
70103;BME280;57470;50.034;15.256;2023-08-31T00:40:18;98686.69;;;14.05;100.00
70103;BME280;57470;50.034;15.256;2023-08-31T00:42:43;98690.50;;;14.12;99.29
70103;BME280;57470;50.034;15.256;2023-08-31T00:45:09;98687.94;;;13.64;100.00
70103;BME280;57470;50.034;15.256;2023-08-31T00:47:35;98695.75;;;14.04;99.82
70103;BME280;57470;50.034;15.256;2023-08-31T00:50:01;98694.94;;;13.84;99.32
70103;BME280;57470;50.034;15.256;2023-08-31T00:52:27;98693.63;;;13.41;100.00
70103;BME280;57470;50.034;15.256;2023-08-31T00:54:52;98697.75;;;13.82;99.57
70103;BME280;57470;50.034;15.256;2023-08-31T00:57:18;98703.97;;;13.73;99.42
70103;BME280;57470;50.034;15.256;2023-08-31T00:59:43;98703.66;;;13.86;99.33
70103;BME280;57470;50.034;15.256;2023-08-31T01:03:09;98704.09;;;13.72;100.00
70103;BME280;57470;50.034;15.256;2023-08-31T01:08:40;98707.34;;;13.75;100.00
70103;BME280;57470;50.034;15.256;2023-08-31T01:11:37;98699.75;;;12.94;100.00
70103;BME280;57470;50.034;15.256;2023-08-31T01:14:12;98709.06;;;13.57;100.00
70103;BME280;57470;50.034;15.256;2023-08-31T01:16:42;98707.22;;;13.58;100.00
70103;BME280;57470;50.034;15.256;2023-08-31T01:22:00;98690.50;;;13.27;100.00
70103;BME280;57470;50.034;15.256;2023-08-31T01:24:29;98706.06;;;13.70;100.00
70103;BME280;57470;50.034;15.256;2023-08-31T01:26:55;98705.28;;;13.60;100.00
70103;BME280;57470;50.034;15.256;2023-08-31T01:29:20;98709.59;;;13.61;100.00
70103;BME280;57470;50.034;15.256;2023-08-31T01:31:46;98694.28;;;13.24;100.00
70103;BME280;57470;50.034;15.256;2023-08-31T01:34:11;98681.06;;;13.03;100.00
70103;BME280;57470;50.034;15.256;2023-08-31T01:36:39;98688.78;;;13.06;100.00
70103;BME280;57470;50.034;15.256;2023-08-31T01:39:46;98695.00;;;13.45;100.00
70103;BME280;57470;50.034;15.256;2023-08-31T01:42:15;98698.66;;;13.54;100.00
70103;BME280;57470;50.034;15.256;2023-08-31T01:44:43;98690.78;;;13.43;100.00
70103;BME280;57470;50.034;15.256;2023-08-31T01:47:10;98688.66;;;13.66;100.00
70103;BME280;57470;50.034;15.256;2023-08-31T01:49:39;98686.41;;;13.61;100.00
70103;BME280;57470;50.034;15.256;2023-08-31T01:52:05;98688.53;;;13.38;100.00
70103;BME280;57470;50.034;15.256;2023-08-31T01:54:31;98687.81;;;13.56;100.00
70103;BME280;57470;50.034;15.256;2023-08-31T01:56:56;98685.03;;;13.38;100.00
70103;BME280;57470;50.034;15.256;2023-08-31T01:59:22;98686.69;;;13.68;100.00
70103;BME280;57470;50.034;15.256;2023-08-31T02:01:47;98682.09;;;13.97;100.00
70103;BME280;57470;50.034;15.256;2023-08-31T02:04:13;98686.13;;;14.11;100.00
70103;BME280;57470;50.034;15.256;2023-08-31T02:06:38;98687.13;;;14.10;100.00
70103;BME280;57470;50.034;15.256;2023-08-31T02:09:03;98680.81;;;14.01;100.00
70103;BME280;57470;50.034;15.256;2023-08-31T02:11:30;98686.28;;;14.09;100.00
70103;BME280;57470;50.034;15.256;2023-08-31T02:14:01;98687.00;;;14.02;100.00
70103;BME280;57470;50.034;15.256;2023-08-31T02:16:29;98693.09;;;14.31;100.00
70103;BME280;57470;50.034;15.256;2023-08-31T02:18:55;98693.25;;;14.30;99.42
70103;BME280;57470;50.034;15.256;2023-08-31T02:21:21;98697.88;;;14.27;99.66
70103;BME280;57470;50.034;15.256;2023-08-31T02:23:49;98703.00;;;14.21;100.00
70103;BME280;57470;50.034;15.256;2023-08-31T02:26:16;98707.56;;;14.38;99.65
70103;BME280;57470;50.034;15.256;2023-08-31T02:28:43;98704.50;;;14.23;99.99
70103;BME280;57470;50.034;15.256;2023-08-31T02:31:10;98706.19;;;14.24;99.95
70103;BME280;57470;50.034;15.256;2023-08-31T02:33:40;98700.66;;;14.36;99.68
70103;BME280;57470;50.034;15.256;2023-08-31T02:36:07;98715.97;;;14.53;98.41
70103;BME280;57470;50.034;15.256;2023-08-31T02:38:34;98708.63;;;14.55;98.67
70103;BME280;57470;50.034;15.256;2023-08-31T02:41:01;98712.06;;;14.47;98.29
70103;BME280;57470;50.034;15.256;2023-08-31T02:43:28;98696.16;;;14.36;98.51
70103;BME280;57470;50.034;15.256;2023-08-31T02:46:02;98700.03;;;14.14;99.00
70103;BME280;57470;50.034;15.256;2023-08-31T02:48:30;98702.00;;;14.22;99.48
70103;BME280;57470;50.034;15.256;2023-08-31T02:51:00;98702.09;;;14.40;98.17
70103;BME280;57470;50.034;15.256;2023-08-31T02:53:30;98705.81;;;14.19;97.84
70103;BME280;57470;50.034;15.256;2023-08-31T02:55:58;98704.00;;;14.10;99.27
70103;BME280;57470;50.034;15.256;2023-08-31T02:58:24;98702.00;;;14.22;98.37
70103;BME280;57470;50.034;15.256;2023-08-31T03:00:51;98708.25;;;14.03;97.99
70103;BME280;57470;50.034;15.256;2023-08-31T03:03:19;98703.03;;;14.11;98.21
70103;BME280;57470;50.034;15.256;2023-08-31T03:05:46;98714.59;;;14.02;98.95
70103;BME280;57470;50.034;15.256;2023-08-31T03:08:13;98710.41;;;13.90;97.93
70103;BME280;57470;50.034;15.256;2023-08-31T03:10:40;98711.50;;;13.97;98.21
70103;BME280;57470;50.034;15.256;2023-08-31T03:13:07;98712.44;;;13.49;99.92
70103;BME280;57470;50.034;15.256;2023-08-31T03:15:33;98720.16;;;13.62;100.00
70103;BME280;57470;50.034;15.256;2023-08-31T03:18:01;98719.41;;;13.79;98.84
70103;BME280;57470;50.034;15.256;2023-08-31T03:20:27;98721.38;;;13.87;98.71
70103;BME280;57470;50.034;15.256;2023-08-31T03:22:52;98725.66;;;13.22;100.00
70103;BME280;57470;50.034;15.256;2023-08-31T03:25:18;98725.22;;;13.65;100.00
70103;BME280;57470;50.034;15.256;2023-08-31T03:27:43;98730.56;;;13.27;100.00
70103;BME280;57470;50.034;15.256;2023-08-31T03:30:09;98729.09;;;12.84;100.00
70103;BME280;57470;50.034;15.256;2023-08-31T03:32:35;98730.16;;;13.50;100.00
70103;BME280;57470;50.034;15.256;2023-08-31T03:35:02;98730.31;;;13.39;100.00
70103;BME280;57470;50.034;15.256;2023-08-31T03:37:29;98725.63;;;13.51;100.00
70103;BME280;57470;50.034;15.256;2023-08-31T03:39:54;98721.84;;;13.44;100.00
70103;BME280;57470;50.034;15.256;2023-08-31T03:42:19;98729.28;;;13.69;99.61
70103;BME280;57470;50.034;15.256;2023-08-31T03:44:45;98716.59;;;12.85;100.00
70103;BME280;57470;50.034;15.256;2023-08-31T03:47:10;98727.22;;;13.15;100.00
70103;BME280;57470;50.034;15.256;2023-08-31T03:49:35;98714.97;;;13.22;100.00
70103;BME280;57470;50.034;15.256;2023-08-31T03:52:01;98710.97;;;13.07;100.00
70103;BME280;57470;50.034;15.256;2023-08-31T03:54:26;98717.56;;;12.84;100.00
70103;BME280;57470;50.034;15.256;2023-08-31T03:56:52;98724.69;;;13.33;100.00
70103;BME280;57470;50.034;15.256;2023-08-31T03:59:17;98720.00;;;13.06;100.00
70103;BME280;57470;50.034;15.256;2023-08-31T04:01:43;98729.13;;;13.03;100.00
70103;BME280;57470;50.034;15.256;2023-08-31T04:04:09;98727.13;;;12.76;100.00
70103;BME280;57470;50.034;15.256;2023-08-31T04:06:34;98728.28;;;13.03;100.00
70103;BME280;57470;50.034;15.256;2023-08-31T04:08:59;98724.47;;;12.96;100.00
70103;BME280;57470;50.034;15.256;2023-08-31T04:11:25;98735.44;;;12.93;100.00
70103;BME280;57470;50.034;15.256;2023-08-31T04:13:51;98744.50;;;13.21;100.00
70103;BME280;57470;50.034;15.256;2023-08-31T04:16:16;98740.97;;;13.30;100.00
70103;BME280;57470;50.034;15.256;2023-08-31T04:18:42;98738.66;;;12.87;100.00
70103;BME280;57470;50.034;15.256;2023-08-31T04:21:08;98729.09;;;12.94;100.00
70103;BME280;57470;50.034;15.256;2023-08-31T04:23:33;98738.19;;;13.41;100.00
70103;BME280;57470;50.034;15.256;2023-08-31T04:25:58;98740.84;;;13.41;100.00
70103;BME280;57470;50.034;15.256;2023-08-31T04:28:24;98745.91;;;13.53;100.00
70103;BME280;57470;50.034;15.256;2023-08-31T04:30:50;98749.00;;;13.59;100.00
70103;BME280;57470;50.034;15.256;2023-08-31T04:33:15;98749.28;;;13.65;99.47
70103;BME280;57470;50.034;15.256;2023-08-31T04:35:41;98744.19;;;13.72;99.94
70103;BME280;57470;50.034;15.256;2023-08-31T04:38:06;98747.28;;;13.77;99.47
70103;BME280;57470;50.034;15.256;2023-08-31T04:40:32;98762.03;;;13.81;99.69
70103;BME280;57470;50.034;15.256;2023-08-31T04:42:57;98756.28;;;13.95;99.47
70103;BME280;57470;50.034;15.256;2023-08-31T04:45:23;98760.47;;;13.98;99.53
70103;BME280;57470;50.034;15.256;2023-08-31T04:47:48;98767.19;;;14.11;99.63
70103;BME280;57470;50.034;15.256;2023-08-31T04:50:16;98761.53;;;14.14;99.62
70103;BME280;57470;50.034;15.256;2023-08-31T04:52:41;98766.50;;;14.09;99.89
70103;BME280;57470;50.034;15.256;2023-08-31T04:55:07;98773.72;;;13.89;100.00
70103;BME280;57470;50.034;15.256;2023-08-31T04:57:33;98778.03;;;14.19;100.00
70103;BME280;57470;50.034;15.256;2023-08-31T04:59:58;98779.56;;;14.22;100.00
70103;BME280;57470;50.034;15.256;2023-08-31T05:02:23;98784.44;;;14.46;99.87
70103;BME280;57470;50.034;15.256;2023-08-31T05:04:49;98779.91;;;13.51;100.00
70103;BME280;57470;50.034;15.256;2023-08-31T05:07:14;98784.22;;;14.10;100.00
70103;BME280;57470;50.034;15.256;2023-08-31T05:09:40;98791.91;;;14.33;100.00
70103;BME280;57470;50.034;15.256;2023-08-31T05:12:05;98797.69;;;14.28;100.00
70103;BME280;57470;50.034;15.256;2023-08-31T05:14:32;98809.09;;;14.49;100.00
70103;BME280;57470;50.034;15.256;2023-08-31T05:17:00;98810.22;;;14.27;100.00
70103;BME280;57470;50.034;15.256;2023-08-31T05:19:25;98813.63;;;14.39;100.00
70103;BME280;57470;50.034;15.256;2023-08-31T05:21:51;98824.53;;;14.65;100.00
70103;BME280;57470;50.034;15.256;2023-08-31T05:24:16;98831.34;;;14.77;100.00
70103;BME280;57470;50.034;15.256;2023-08-31T05:26:41;98826.22;;;14.66;100.00
70103;BME280;57470;50.034;15.256;2023-08-31T05:29:07;98825.69;;;14.53;100.00
70103;BME280;57470;50.034;15.256;2023-08-31T05:31:32;98834.13;;;14.58;100.00
70103;BME280;57470;50.034;15.256;2023-08-31T05:33:58;98832.25;;;14.68;100.00
70103;BME280;57470;50.034;15.256;2023-08-31T05:36:23;98827.31;;;14.73;100.00
70103;BME280;57470;50.034;15.256;2023-08-31T05:38:50;98825.19;;;14.20;100.00
70103;BME280;57470;50.034;15.256;2023-08-31T05:41:17;98837.09;;;14.55;100.00
70103;BME280;57470;50.034;15.256;2023-08-31T05:43:43;98835.50;;;14.62;100.00
70103;BME280;57470;50.034;15.256;2023-08-31T05:46:09;98833.16;;;14.86;100.00
70103;BME280;57470;50.034;15.256;2023-08-31T05:48:35;98844.66;;;14.96;100.00
70103;BME280;57470;50.034;15.256;2023-08-31T05:51:01;98841.59;;;14.91;100.00
70103;BME280;57470;50.034;15.256;2023-08-31T05:53:29;98841.94;;;15.06;100.00
70103;BME280;57470;50.034;15.256;2023-08-31T05:55:55;98845.47;;;15.07;100.00
70103;BME280;57470;50.034;15.256;2023-08-31T05:58:27;98846.44;;;15.33;100.00
70103;BME280;57470;50.034;15.256;2023-08-31T06:00:53;98849.44;;;15.02;100.00
70103;BME280;57470;50.034;15.256;2023-08-31T06:03:18;98852.41;;;14.99;100.00
70103;BME280;57470;50.034;15.256;2023-08-31T06:05:44;98843.38;;;15.28;100.00
70103;BME280;57470;50.034;15.256;2023-08-31T06:08:09;98846.16;;;15.36;100.00
70103;BME280;57470;50.034;15.256;2023-08-31T06:10:34;98835.06;;;15.49;100.00
70103;BME280;57470;50.034;15.256;2023-08-31T06:13:00;98836.19;;;15.56;99.73
70103;BME280;57470;50.034;15.256;2023-08-31T06:15:25;98848.28;;;15.77;99.80
70103;BME280;57470;50.034;15.256;2023-08-31T06:17:50;98842.91;;;15.77;100.00
70103;BME280;57470;50.034;15.256;2023-08-31T06:20:16;98855.06;;;16.25;99.65
70103;BME280;57470;50.034;15.256;2023-08-31T06:22:41;98855.56;;;16.03;100.00
70103;BME280;57470;50.034;15.256;2023-08-31T06:25:07;98850.19;;;15.67;99.13
70103;BME280;57470;50.034;15.256;2023-08-31T06:27:33;98861.41;;;15.81;99.46
70103;BME280;57470;50.034;15.256;2023-08-31T06:29:58;98867.06;;;15.77;99.93
70103;BME280;57470;50.034;15.256;2023-08-31T06:32:23;98868.38;;;15.91;98.73
70103;BME280;57470;50.034;15.256;2023-08-31T06:34:49;98872.91;;;15.91;98.35
70103;BME280;57470;50.034;15.256;2023-08-31T06:37:14;98881.38;;;16.22;96.58
70103;BME280;57470;50.034;15.256;2023-08-31T06:39:40;98891.50;;;16.28;96.25
70103;BME280;57470;50.034;15.256;2023-08-31T06:42:06;98886.50;;;16.33;95.57
70103;BME280;57470;50.034;15.256;2023-08-31T06:44:31;98887.19;;;16.35;96.50
70103;BME280;57470;50.034;15.256;2023-08-31T06:46:57;98887.94;;;16.45;94.73
70103;BME280;57470;50.034;15.256;2023-08-31T06:49:23;98890.66;;;16.27;94.80
70103;BME280;57470;50.034;15.256;2023-08-31T06:51:48;98889.28;;;16.23;94.38
70103;BME280;57470;50.034;15.256;2023-08-31T06:54:14;98893.44;;;16.00;95.22
70103;BME280;57470;50.034;15.256;2023-08-31T06:56:39;98889.75;;;16.01;94.94
70103;BME280;57470;50.034;15.256;2023-08-31T06:59:05;98883.91;;;16.23;94.47
70103;BME280;57470;50.034;15.256;2023-08-31T07:01:31;98882.75;;;16.26;94.12
70103;BME280;57470;50.034;15.256;2023-08-31T07:03:58;98887.91;;;16.19;94.32
70103;BME280;57470;50.034;15.256;2023-08-31T07:06:23;98882.66;;;16.35;93.89
70103;BME280;57470;50.034;15.256;2023-08-31T07:08:49;98892.22;;;16.38;94.04
70103;BME280;57470;50.034;15.256;2023-08-31T07:11:14;98885.66;;;16.32;94.13
70103;BME280;57470;50.034;15.256;2023-08-31T07:13:40;98892.72;;;16.16;93.14
70103;BME280;57470;50.034;15.256;2023-08-31T07:16:06;98908.66;;;16.35;93.19
70103;BME280;57470;50.034;15.256;2023-08-31T07:18:31;98914.47;;;16.30;93.83
70103;BME280;57470;50.034;15.256;2023-08-31T07:20:57;98908.88;;;16.41;94.61
70103;BME280;57470;50.034;15.256;2023-08-31T07:23:22;98914.97;;;16.26;95.28
70103;BME280;57470;50.034;15.256;2023-08-31T07:25:48;98924.34;;;16.65;94.39
70103;BME280;57470;50.034;15.256;2023-08-31T07:28:14;98921.41;;;16.59;93.37
70103;BME280;57470;50.034;15.256;2023-08-31T07:30:39;98922.00;;;16.88;93.29
70103;BME280;57470;50.034;15.256;2023-08-31T07:33:05;98924.94;;;16.77;91.75
70103;BME280;57470;50.034;15.256;2023-08-31T07:35:31;98928.41;;;16.69;92.92
70103;BME280;57470;50.034;15.256;2023-08-31T07:37:57;98932.31;;;17.01;91.74
70103;BME280;57470;50.034;15.256;2023-08-31T07:40:22;98933.53;;;17.06;92.26
70103;BME280;57470;50.034;15.256;2023-08-31T07:42:48;98934.91;;;17.44;93.23
70103;BME280;57470;50.034;15.256;2023-08-31T07:45:13;98944.00;;;17.17;93.71
70103;BME280;57470;50.034;15.256;2023-08-31T07:47:39;98947.81;;;17.75;91.73
70103;BME280;57470;50.034;15.256;2023-08-31T07:50:07;98947.31;;;17.71;90.11
70103;BME280;57470;50.034;15.256;2023-08-31T07:52:33;98944.28;;;17.82;89.66
70103;BME280;57470;50.034;15.256;2023-08-31T07:54:59;98947.72;;;17.58;90.60
70103;BME280;57470;50.034;15.256;2023-08-31T07:57:25;98939.97;;;17.97;89.16
70103;BME280;57470;50.034;15.256;2023-08-31T07:59:50;98943.69;;;18.13;89.32
70103;BME280;57470;50.034;15.256;2023-08-31T08:02:16;98949.47;;;18.34;89.13
70103;BME280;57470;50.034;15.256;2023-08-31T08:04:42;98948.91;;;18.06;88.00
70103;BME280;57470;50.034;15.256;2023-08-31T08:07:07;98952.75;;;18.04;87.04
70103;BME280;57470;50.034;15.256;2023-08-31T08:09:34;98955.00;;;18.24;87.02
70103;BME280;57470;50.034;15.256;2023-08-31T08:11:59;98956.00;;;18.31;86.88
70103;BME280;57470;50.034;15.256;2023-08-31T08:14:24;98944.84;;;18.02;87.00
70103;BME280;57470;50.034;15.256;2023-08-31T08:16:50;98959.00;;;18.20;85.95
70103;BME280;57470;50.034;15.256;2023-08-31T08:19:23;98949.78;;;18.31;83.98
70103;BME280;57470;50.034;15.256;2023-08-31T08:21:50;98943.41;;;18.72;84.24
70103;BME280;57470;50.034;15.256;2023-08-31T08:24:16;98957.88;;;18.55;85.51
70103;BME280;57470;50.034;15.256;2023-08-31T08:26:41;98963.25;;;18.55;83.78
70103;BME280;57470;50.034;15.256;2023-08-31T08:29:06;98956.56;;;18.67;83.16
70103;BME280;57470;50.034;15.256;2023-08-31T08:31:32;98957.38;;;18.52;82.77
70103;BME280;57470;50.034;15.256;2023-08-31T08:33:57;98966.78;;;18.48;82.19
70103;BME280;57470;50.034;15.256;2023-08-31T08:36:22;98961.59;;;18.62;81.36
70103;BME280;57470;50.034;15.256;2023-08-31T08:38:48;98966.09;;;18.54;79.39
70103;BME280;57470;50.034;15.256;2023-08-31T08:41:14;98968.63;;;18.55;78.65
70103;BME280;57470;50.034;15.256;2023-08-31T08:43:42;98964.94;;;18.89;79.25
70103;BME280;57470;50.034;15.256;2023-08-31T08:46:09;98961.25;;;18.73;80.32
70103;BME280;57470;50.034;15.256;2023-08-31T08:48:36;98952.28;;;18.97;78.29
70103;BME280;57470;50.034;15.256;2023-08-31T08:51:03;98955.09;;;19.28;78.10
70103;BME280;57470;50.034;15.256;2023-08-31T08:53:29;98958.16;;;19.17;78.02
70103;BME280;57470;50.034;15.256;2023-08-31T08:55:54;98953.34;;;18.96;77.29
70103;BME280;57470;50.034;15.256;2023-08-31T08:58:20;98958.38;;;18.99;77.38
70103;BME280;57470;50.034;15.256;2023-08-31T09:00:46;98969.09;;;19.16;77.79
70103;BME280;57470;50.034;15.256;2023-08-31T09:03:13;98963.09;;;18.49;77.35
70103;BME280;57470;50.034;15.256;2023-08-31T09:05:38;98970.69;;;18.61;78.46
70103;BME280;57470;50.034;15.256;2023-08-31T09:08:05;98970.31;;;18.56;78.74
70103;BME280;57470;50.034;15.256;2023-08-31T09:10:44;98977.03;;;18.52;77.84
70103;BME280;57470;50.034;15.256;2023-08-31T09:13:12;98985.13;;;18.52;77.90
70103;BME280;57470;50.034;15.256;2023-08-31T09:15:48;98980.94;;;18.50;77.28
70103;BME280;57470;50.034;15.256;2023-08-31T09:18:28;98974.88;;;18.80;77.35
70103;BME280;57470;50.034;15.256;2023-08-31T09:20:54;98975.91;;;18.95;76.97
70103;BME280;57470;50.034;15.256;2023-08-31T09:23:22;98979.44;;;19.04;75.99
70103;BME280;57470;50.034;15.256;2023-08-31T09:25:49;98974.03;;;19.12;75.93
70103;BME280;57470;50.034;15.256;2023-08-31T09:28:19;98985.59;;;19.29;75.54
70103;BME280;57470;50.034;15.256;2023-08-31T09:30:47;98981.72;;;19.39;75.46
70103;BME280;57470;50.034;15.256;2023-08-31T09:33:18;98978.84;;;19.49;74.22
70103;BME280;57470;50.034;15.256;2023-08-31T09:35:53;98988.78;;;19.40;75.85
70103;BME280;57470;50.034;15.256;2023-08-31T09:38:19;98980.97;;;18.82;75.24
70103;BME280;57470;50.034;15.256;2023-08-31T09:40:45;98985.47;;;18.49;74.57
70103;BME280;57470;50.034;15.256;2023-08-31T09:43:10;98990.22;;;18.80;75.00
70103;BME280;57470;50.034;15.256;2023-08-31T09:45:37;98984.28;;;19.08;73.84
70103;BME280;57470;50.034;15.256;2023-08-31T09:48:04;98986.56;;;19.44;75.09
70103;BME280;57470;50.034;15.256;2023-08-31T09:50:31;98987.47;;;19.20;75.38
70103;BME280;57470;50.034;15.256;2023-08-31T09:53:04;98989.34;;;19.20;74.06
70103;BME280;57470;50.034;15.256;2023-08-31T09:55:31;98995.88;;;19.41;73.64
70103;BME280;57470;50.034;15.256;2023-08-31T09:57:59;98990.66;;;19.48;73.90
70103;BME280;57470;50.034;15.256;2023-08-31T10:00:29;98993.97;;;19.42;75.19
70103;BME280;57470;50.034;15.256;2023-08-31T10:02:58;98993.66;;;19.45;73.91
70103;BME280;57470;50.034;15.256;2023-08-31T10:05:25;98998.25;;;19.28;73.69
70103;BME280;57470;50.034;15.256;2023-08-31T10:07:51;98994.75;;;19.11;72.82
70103;BME280;57470;50.034;15.256;2023-08-31T10:10:17;99002.28;;;19.24;73.17
70103;BME280;57470;50.034;15.256;2023-08-31T10:12:45;99007.41;;;18.87;73.50
70103;BME280;57470;50.034;15.256;2023-08-31T10:15:11;99011.78;;;18.96;74.18
70103;BME280;57470;50.034;15.256;2023-08-31T10:17:39;99013.03;;;19.57;74.35
70103;BME280;57470;50.034;15.256;2023-08-31T10:20:06;99026.56;;;19.24;73.92
70103;BME280;57470;50.034;15.256;2023-08-31T10:22:33;99025.13;;;19.69;72.91
70103;BME280;57470;50.034;15.256;2023-08-31T10:25:03;99017.28;;;19.90;71.31
70103;BME280;57470;50.034;15.256;2023-08-31T10:27:40;99008.06;;;19.84;70.17
70103;BME280;57470;50.034;15.256;2023-08-31T10:30:25;99005.72;;;20.12;71.39
70103;BME280;57470;50.034;15.256;2023-08-31T10:38:16;99000.66;;;20.40;68.97
70103;BME280;57470;50.034;15.256;2023-08-31T10:40:59;99003.75;;;19.98;68.93
70103;BME280;57470;50.034;15.256;2023-08-31T10:43:25;99010.63;;;20.09;69.89
70103;BME280;57470;50.034;15.256;2023-08-31T10:45:50;99020.94;;;20.05;70.16
70103;BME280;57470;50.034;15.256;2023-08-31T10:48:17;99010.88;;;19.91;70.65
70103;BME280;57470;50.034;15.256;2023-08-31T10:50:45;99014.66;;;19.74;69.96
70103;BME280;57470;50.034;15.256;2023-08-31T10:53:12;99017.22;;;20.06;71.29
70103;BME280;57470;50.034;15.256;2023-08-31T10:55:51;99008.84;;;20.55;76.08
70103;BME280;57470;50.034;15.256;2023-08-31T10:58:17;99016.69;;;20.42;71.83
70103;BME280;57470;50.034;15.256;2023-08-31T11:00:50;99018.06;;;20.07;70.23
70103;BME280;57470;50.034;15.256;2023-08-31T11:03:21;99017.53;;;20.11;72.27
70103;BME280;57470;50.034;15.256;2023-08-31T11:05:53;99020.41;;;20.10;70.28
70103;BME280;57470;50.034;15.256;2023-08-31T11:08:25;99022.38;;;19.85;70.10
70103;BME280;57470;50.034;15.256;2023-08-31T11:10:52;99028.84;;;19.76;70.11
70103;BME280;57470;50.034;15.256;2023-08-31T11:13:22;99029.91;;;19.51;68.79
70103;BME280;57470;50.034;15.256;2023-08-31T11:15:48;99037.81;;;19.60;68.30
70103;BME280;57470;50.034;15.256;2023-08-31T11:18:15;99035.84;;;19.30;68.76
70103;BME280;57470;50.034;15.256;2023-08-31T11:20:43;99039.03;;;19.17;71.97
70103;BME280;57470;50.034;15.256;2023-08-31T11:23:09;99047.75;;;19.43;71.60
70103;BME280;57470;50.034;15.256;2023-08-31T11:25:35;99052.50;;;19.41;72.67
70103;BME280;57470;50.034;15.256;2023-08-31T11:28:03;99043.38;;;19.42;73.62
70103;BME280;57470;50.034;15.256;2023-08-31T11:30:32;99038.66;;;19.61;72.47
70103;BME280;57470;50.034;15.256;2023-08-31T11:33:02;99039.22;;;19.95;73.39
70103;BME280;57470;50.034;15.256;2023-08-31T11:35:32;99027.91;;;20.22;72.68
70103;BME280;57470;50.034;15.256;2023-08-31T11:37:58;99024.00;;;20.02;70.93
70103;BME280;57470;50.034;15.256;2023-08-31T11:40:26;99029.75;;;20.38;70.47
70103;BME280;57470;50.034;15.256;2023-08-31T11:42:52;99029.34;;;20.72;68.92
70103;BME280;57470;50.034;15.256;2023-08-31T11:45:18;99024.69;;;20.58;66.23
70103;BME280;57470;50.034;15.256;2023-08-31T11:47:46;99032.09;;;20.87;66.76
70103;BME280;57470;50.034;15.256;2023-08-31T11:50:13;99016.13;;;21.15;65.25
70103;BME280;57470;50.034;15.256;2023-08-31T11:52:39;99017.66;;;20.94;62.44
70103;BME280;57470;50.034;15.256;2023-08-31T11:55:12;99012.28;;;21.09;63.96
70103;BME280;57470;50.034;15.256;2023-08-31T11:57:38;99014.59;;;20.97;62.36
70103;BME280;57470;50.034;15.256;2023-08-31T12:00:03;99025.91;;;21.16;64.32
70103;BME280;57470;50.034;15.256;2023-08-31T12:02:40;99019.38;;;21.10;65.44
70103;BME280;57470;50.034;15.256;2023-08-31T12:05:05;99024.88;;;21.69;62.51
70103;BME280;57470;50.034;15.256;2023-08-31T12:07:31;99023.84;;;21.85;65.84
70103;BME280;57470;50.034;15.256;2023-08-31T12:10:06;99030.09;;;21.41;63.06
70103;BME280;57470;50.034;15.256;2023-08-31T12:12:32;99024.13;;;21.46;62.27
70103;BME280;57470;50.034;15.256;2023-08-31T12:15:02;99021.97;;;21.41;61.47
70103;BME280;57470;50.034;15.256;2023-08-31T12:17:29;99028.75;;;21.22;63.21
70103;BME280;57470;50.034;15.256;2023-08-31T12:20:02;99024.66;;;21.26;60.94
70103;BME280;57470;50.034;15.256;2023-08-31T12:22:30;99024.00;;;21.39;62.44
70103;BME280;57470;50.034;15.256;2023-08-31T12:24:55;99029.13;;;22.01;64.97
70103;BME280;57470;50.034;15.256;2023-08-31T12:27:21;99028.72;;;22.04;59.31
70103;BME280;57470;50.034;15.256;2023-08-31T12:29:46;99034.41;;;21.80;59.62
70103;BME280;57470;50.034;15.256;2023-08-31T12:32:11;99035.22;;;21.65;60.07
70103;BME280;57470;50.034;15.256;2023-08-31T12:34:37;99037.03;;;21.73;60.30
70103;BME280;57470;50.034;15.256;2023-08-31T12:37:02;99021.03;;;21.93;60.96
70103;BME280;57470;50.034;15.256;2023-08-31T12:39:29;99017.34;;;21.64;58.37
70103;BME280;57470;50.034;15.256;2023-08-31T12:41:55;99020.69;;;21.37;62.05
70103;BME280;57470;50.034;15.256;2023-08-31T12:44:21;99028.06;;;21.87;60.08
70103;BME280;57470;50.034;15.256;2023-08-31T12:46:47;99024.22;;;21.67;62.65
70103;BME280;57470;50.034;15.256;2023-08-31T12:49:12;99022.44;;;21.59;62.30
70103;BME280;57470;50.034;15.256;2023-08-31T12:51:38;99038.81;;;21.81;62.47
70103;BME280;57470;50.034;15.256;2023-08-31T12:54:03;99027.03;;;21.88;62.68
70103;BME280;57470;50.034;15.256;2023-08-31T12:56:29;99033.84;;;22.14;63.29
70103;BME280;57470;50.034;15.256;2023-08-31T12:58:54;99040.59;;;22.39;61.64